RORY(METAR)
12/11 18:00
METAR RORY 110900Z AUTO 17011KT 9999 BKN010 OVC023 23/22 Q1014 RMK
A2996=
戻る
トップページへ戻る
IMOC Co,.Ltd.